Airfield :
LOGIN :

Register | Disclaimer

   EN    FR    IT 

 










Legend :    VFR   Marginal VFR   IFR   Intensive IFR   Very Intensive IFR
Visi :
Ceiling :
>= 8 km
>= 3000ft
5 to 8 km
1000 to 3000 ft
1500m to 5 km
500 to 1000 ft
800 to 1500m
200 to 500 ft
< 800m
< 200 ft
Symbols :   Thunderstorms  Fog  Heavy snow  Heavy precipitations  Wind > 20 kt
SIGMETs :     Misc.  Thunderstorms  Icing  Turbulence  Mountain Waves  Volcanic Ashes






- Airport Elevation : 272 ft


EGWC - DCAE Cosford

CURRENT METAR :
  • 171250Z 33011G23KT 9999 SCT040 10/M01 Q1017 RMK BLU

EXPIRED METARs :
  • 171150Z 31012KT 9999 SCT030 10/01 Q1017 RMK BLU
  • 171050Z 30014KT 9999 SCT028 09/00 Q1017 RMK BLU
  • 170950Z 33012KT 9999 FEW025 09/01 Q1017 RMK BLU
  • 170850Z 33010G20KT 9999 SCT025 08/01 Q1017 RMK BLU

TAF TAF EGWC
Valid from the 17 at 12:00 until the 17 at 18:00 UTC


171158Z 1712/1718 31012KT 9999 SCT035
TEMPO 1712/1717 33016G26KT



MET'MAP, your aeronautical weather chart ! - Copyright ORBIFLY December 2007 - Disclaimer

ORBIFLY MET'MAP TEAM :

Programming & Development : Alexandra Zaïnal
Original concept : Baudouin d'Aumeries
Technical & hardware support : Manuel Goepfert
Assistance : Marc-Olivier Méhu




SOURCES & CREDITS :

   NOAA